Time,TemperatureF,DewpointF,PressureIn,WindDirection,WindDirectionDegrees,WindSpeedMPH,WindSpeedGustMPH,Humidity,HourlyPrecipIn,Conditions,Clouds,dailyrainin,SoftwareType,DateUTC
2013-06-13 00:02:00,67.0,18.0,29.58,ENE,60,4.0,-999.0,15,-99.99,,,-99.99,,2013-06-13 06:02:00,
2013-06-13 00:11:00,66.0,20.0,29.59,NE,55,3.0,-999.0,17,-99.99,,,-99.99,,2013-06-13 06:11:00,
2013-06-13 00:22:00,66.0,20.0,29.59,NE,55,3.0,-999.0,17,-99.99,,,-99.99,,2013-06-13 06:22:00,
2013-06-13 00:33:00,66.0,20.0,29.59,NE,55,3.0,-999.0,17,-99.99,,,-99.99,,2013-06-13 06:33:00,
2013-06-13 00:44:00,65.0,20.0,29.59,NE,51,3.0,-999.0,18,-99.99,,,-99.99,,2013-06-13 06:44:00,
2013-06-13 00:52:00,64.0,21.0,29.57,NNE,13,1.0,-999.0,19,-99.99,,,-99.99,,2013-06-13 06:52:00,
2013-06-13 01:01:00,64.0,21.0,29.57,NNE,13,1.0,-999.0,19,-99.99,,,-99.99,,2013-06-13 07:01:00,
2013-06-13 01:11:00,64.0,21.0,29.57,NNE,13,1.0,-999.0,19,-99.99,,,-99.99,,2013-06-13 07:11:00,
2013-06-13 01:22:00,63.0,19.0,29.59,NNE,22,1.0,-999.0,18,-99.99,,,-99.99,,2013-06-13 07:22:00,
2013-06-13 01:33:00,63.0,19.0,29.59,NNE,22,1.0,-999.0,18,-99.99,,,-99.99,,2013-06-13 07:33:00,
2013-06-13 01:42:00,63.0,19.0,29.58,NNE,25,1.0,-999.0,18,-99.99,,,-99.99,,2013-06-13 07:42:00,
2013-06-13 01:52:00,62.0,19.0,29.58,NNE,25,0.0,-999.0,19,-99.99,,,-99.99,,2013-06-13 07:52:00,
2013-06-13 02:01:00,62.0,19.0,29.58,NNE,25,0.0,-999.0,19,-99.99,,,-99.99,,2013-06-13 08:01:00,
2013-06-13 02:11:00,62.0,20.0,29.59,NNE,25,1.0,-999.0,20,-99.99,,,-99.99,,2013-06-13 08:11:00,
2013-06-13 02:22:00,62.0,19.0,29.59,NNE,25,2.0,-999.0,19,-99.99,,,-99.99,,2013-06-13 08:22:00,
2013-06-13 02:32:00,62.0,19.0,29.59,NNE,25,2.0,-999.0,19,-99.99,,,-99.99,,2013-06-13 08:32:00,
2013-06-13 02:43:00,62.0,19.0,29.59,NNE,25,2.0,-999.0,19,-99.99,,,-99.99,,2013-06-13 08:43:00,
2013-06-13 02:52:00,62.0,20.0,29.59,NNE,18,2.0,-999.0,20,-99.99,,,-99.99,,2013-06-13 08:52:00,
2013-06-13 03:02:00,62.0,20.0,29.59,NNE,18,2.0,-999.0,20,-99.99,,,-99.99,,2013-06-13 09:02:00,
2013-06-13 03:11:00,62.0,20.0,29.59,NNE,18,2.0,-999.0,20,-99.99,,,-99.99,,2013-06-13 09:11:00,
2013-06-13 03:22:00,59.0,20.0,29.59,NNE,18,2.0,-999.0,22,-99.99,,,-99.99,,2013-06-13 09:22:00,
2013-06-13 03:32:00,59.0,20.0,29.59,NNE,18,2.0,-999.0,22,-99.99,,,-99.99,,2013-06-13 09:32:00,
2013-06-13 03:42:00,59.0,22.0,29.60,NNE,18,2.0,-999.0,24,-99.99,,,-99.99,,2013-06-13 09:42:00,
2013-06-13 03:52:00,59.0,22.0,29.60,NNE,18,2.0,-999.0,24,-99.99,,,-99.99,,2013-06-13 09:52:00,
2013-06-13 04:01:00,59.0,22.0,29.60,NNE,18,2.0,-999.0,24,-99.99,,,-99.99,,2013-06-13 10:01:00,
2013-06-13 04:11:00,59.0,22.0,29.60,NNE,18,2.0,-999.0,24,-99.99,,,-99.99,,2013-06-13 10:11:00,
2013-06-13 04:22:00,55.0,23.0,29.61,North,6,2.0,-999.0,28,-99.99,,,-99.99,,2013-06-13 10:22:00,
2013-06-13 04:33:00,55.0,23.0,29.61,North,6,2.0,-999.0,28,-99.99,,,-99.99,,2013-06-13 10:33:00,
2013-06-13 04:53:00,54.0,22.0,29.64,North,4,0.0,-999.0,29,-99.99,,,-99.99,,2013-06-13 10:53:00,
2013-06-13 05:02:00,54.0,22.0,29.64,North,4,0.0,-999.0,29,-99.99,,,-99.99,,2013-06-13 11:02:00,
2013-06-13 05:11:00,54.0,24.0,29.64,North,4,0.0,-999.0,31,-99.99,,,-99.99,,2013-06-13 11:11:00,
2013-06-13 05:52:00,52.0,23.0,29.65,North,4,1.0,-999.0,32,-99.99,,,-99.99,,2013-06-13 11:52:00,
2013-06-13 06:22:00,52.0,21.0,29.65,North,4,3.0,-999.0,29,-99.99,,,-99.99,,2013-06-13 12:22:00,
2013-06-13 06:34:00,52.0,21.0,29.65,North,4,3.0,-999.0,29,-99.99,,,-99.99,,2013-06-13 12:34:00,
2013-06-13 06:42:00,54.0,21.0,29.65,North,4,3.0,-999.0,27,-99.99,,,-99.99,,2013-06-13 12:42:00,
2013-06-13 06:52:00,54.0,21.0,29.65,North,4,3.0,-999.0,27,-99.99,,,-99.99,,2013-06-13 12:52:00,
2013-06-13 07:01:00,54.0,21.0,29.65,North,4,3.0,-999.0,27,-99.99,,,-99.99,,2013-06-13 13:01:00,
2013-06-13 07:11:00,56.0,22.0,29.67,NNE,14,3.0,-999.0,26,-99.99,,,-99.99,,2013-06-13 13:11:00,
2013-06-13 07:21:00,58.0,23.0,29.65,North,3,3.0,-999.0,26,-99.99,,,-99.99,,2013-06-13 13:21:00,
2013-06-13 07:32:00,58.0,23.0,29.65,North,3,3.0,-999.0,26,-99.99,,,-99.99,,2013-06-13 13:32:00,
2013-06-13 07:43:00,60.0,25.0,29.65,North,3,2.0,-999.0,26,-99.99,,,-99.99,,2013-06-13 13:43:00,
2013-06-13 07:53:00,60.0,25.0,29.65,North,3,2.0,-999.0,26,-99.99,,,-99.99,,2013-06-13 13:53:00,
2013-06-13 08:02:00,60.0,25.0,29.65,North,3,2.0,-999.0,26,-99.99,,,-99.99,,2013-06-13 14:02:00,
2013-06-13 08:11:00,63.0,31.0,29.67,North,4,1.0,-999.0,30,-99.99,,,-99.99,,2013-06-13 14:11:00,
2013-06-13 08:22:00,63.0,31.0,29.67,North,4,1.0,-999.0,30,-99.99,,,-99.99,,2013-06-13 14:22:00,
2013-06-13 08:33:00,63.0,31.0,29.67,North,4,1.0,-999.0,30,-99.99,,,-99.99,,2013-06-13 14:33:00,
2013-06-13 08:43:00,71.0,29.0,29.63,ENE,60,3.0,-999.0,21,-99.99,,,-99.99,,2013-06-13 14:43:00,
2013-06-13 08:53:00,71.0,29.0,29.63,ENE,60,3.0,-999.0,21,-99.99,,,-99.99,,2013-06-13 14:53:00,
2013-06-13 09:01:00,73.0,27.0,29.67,NNE,19,1.0,-999.0,18,-99.99,,,-99.99,,2013-06-13 15:01:00,
2013-06-13 09:12:00,76.0,27.0,29.67,NNE,19,0.0,-999.0,16,-99.99,,,-99.99,,2013-06-13 15:12:00,
2013-06-13 09:22:00,78.0,27.0,29.65,NNE,19,0.0,-999.0,15,-99.99,,,-99.99,,2013-06-13 15:22:00,
2013-06-13 09:33:00,78.0,27.0,29.65,NNE,19,0.0,-999.0,15,-99.99,,,-99.99,,2013-06-13 15:33:00,
2013-06-13 09:43:00,80.0,23.0,29.65,NNE,20,0.0,-999.0,12,-99.99,,,-99.99,,2013-06-13 15:43:00,
2013-06-13 09:53:00,80.0,23.0,29.65,NNE,20,0.0,-999.0,12,-99.99,,,-99.99,,2013-06-13 15:53:00,
2013-06-13 10:01:00,83.0,25.0,29.66,NNE,20,0.0,-999.0,12,-99.99,,,-99.99,,2013-06-13 16:01:00,
2013-06-13 10:12:00,82.0,24.0,29.66,East,84,1.0,-999.0,12,-99.99,,,-99.99,,2013-06-13 16:12:00,
2013-06-13 10:22:00,82.0,24.0,29.66,East,84,1.0,-999.0,12,-99.99,,,-99.99,,2013-06-13 16:22:00,
2013-06-13 10:33:00,84.0,24.0,29.65,East,96,1.0,-999.0,11,-99.99,,,-99.99,,2013-06-13 16:33:00,
2013-06-13 10:43:00,85.0,27.0,29.64,ESE,103,1.0,-999.0,12,-99.99,,,-99.99,,2013-06-13 16:43:00,
2013-06-13 10:53:00,85.0,27.0,29.64,ESE,103,1.0,-999.0,12,-99.99,,,-99.99,,2013-06-13 16:53:00,
2013-06-13 11:02:00,87.0,26.0,29.61,SE,132,1.0,-999.0,11,-99.99,,,-99.99,,2013-06-13 17:02:00,
2013-06-13 11:11:00,87.0,26.0,29.61,West,261,2.0,-999.0,11,-99.99,,,-99.99,,2013-06-13 17:11:00,
2013-06-13 11:24:00,87.0,26.0,29.61,West,261,2.0,-999.0,11,-99.99,,,-99.99,,2013-06-13 17:24:00,
2013-06-13 11:33:00,88.0,27.0,29.60,SW,229,3.0,-999.0,11,-99.99,,,-99.99,,2013-06-13 17:33:00,
2013-06-13 11:43:00,89.0,25.0,29.59,West,271,3.0,-999.0,10,-99.99,,,-99.99,,2013-06-13 17:43:00,
2013-06-13 11:53:00,89.0,25.0,29.59,West,271,3.0,-999.0,10,-99.99,,,-99.99,,2013-06-13 17:53:00,
2013-06-13 12:02:00,90.0,26.0,29.59,WSW,249,3.0,-999.0,10,-99.99,,,-99.99,,2013-06-13 18:02:00,
2013-06-13 12:11:00,91.0,27.0,29.59,SW,215,4.0,-999.0,10,-99.99,,,-99.99,,2013-06-13 18:11:00,
2013-06-13 12:22:00,91.0,27.0,29.59,SW,215,4.0,-999.0,10,-99.99,,,-99.99,,2013-06-13 18:22:00,
2013-06-13 12:33:00,92.0,25.0,29.57,WSW,238,6.0,-999.0,9,-99.99,,,-99.99,,2013-06-13 18:33:00,
2013-06-13 12:43:00,92.0,25.0,29.57,SSW,209,8.0,-999.0,9,-99.99,,,-99.99,,2013-06-13 18:43:00,
2013-06-13 12:52:00,92.0,25.0,29.57,SSW,209,8.0,-999.0,9,-99.99,,,-99.99,,2013-06-13 18:52:00,
2013-06-13 13:01:00,92.0,25.0,29.58,West,264,5.0,-999.0,9,-99.99,,,-99.99,,2013-06-13 19:01:00,
2013-06-13 13:11:00,92.0,25.0,29.57,SW,222,6.0,-999.0,9,-99.99,,,-99.99,,2013-06-13 19:11:00,
2013-06-13 13:22:00,92.0,25.0,29.57,SW,222,6.0,-999.0,9,-99.99,,,-99.99,,2013-06-13 19:22:00,
2013-06-13 13:33:00,92.0,25.0,29.57,East,99,4.0,-999.0,9,-99.99,,,-99.99,,2013-06-13 19:33:00,
2013-06-13 13:43:00,91.0,27.0,29.56,SW,218,5.0,-999.0,10,-99.99,,,-99.99,,2013-06-13 19:43:00,
2013-06-13 13:53:00,91.0,27.0,29.56,SW,218,5.0,-999.0,10,-99.99,,,-99.99,,2013-06-13 19:53:00,
2013-06-13 14:01:00,91.0,27.0,29.57,SSW,198,7.0,-999.0,10,-99.99,,,-99.99,,2013-06-13 20:01:00,
2013-06-13 14:11:00,92.0,28.0,29.57,SSW,210,5.0,-999.0,10,-99.99,,,-99.99,,2013-06-13 20:11:00,
2013-06-13 14:22:00,92.0,28.0,29.57,SSW,210,5.0,-999.0,10,-99.99,,,-99.99,,2013-06-13 20:22:00,
2013-06-13 14:33:00,93.0,26.0,29.55,WSW,238,4.0,-999.0,9,-99.99,,,-99.99,,2013-06-13 20:33:00,
2013-06-13 14:43:00,91.0,27.0,29.55,West,261,6.0,-999.0,10,-99.99,,,-99.99,,2013-06-13 20:43:00,
2013-06-13 14:53:00,91.0,27.0,29.55,West,261,6.0,-999.0,10,-99.99,,,-99.99,,2013-06-13 20:53:00,
2013-06-13 15:02:00,90.0,26.0,29.56,SSW,200,9.0,-999.0,10,-99.99,,,-99.99,,2013-06-13 21:02:00,
2013-06-13 15:11:00,89.0,28.0,29.58,SSW,211,8.0,-999.0,11,-99.99,,,-99.99,,2013-06-13 21:11:00,
2013-06-13 15:22:00,89.0,28.0,29.58,SSW,211,8.0,-999.0,11,-99.99,,,-99.99,,2013-06-13 21:22:00,
2013-06-13 15:34:00,91.0,27.0,29.58,SW,217,6.0,-999.0,10,-99.99,,,-99.99,,2013-06-13 21:34:00,
2013-06-13 15:43:00,92.0,28.0,29.57,SSW,211,2.0,-999.0,10,-99.99,,,-99.99,,2013-06-13 21:43:00,
2013-06-13 15:52:00,92.0,28.0,29.57,SSW,211,2.0,-999.0,10,-99.99,,,-99.99,,2013-06-13 21:52:00,
2013-06-13 16:02:00,92.0,28.0,29.57,SSW,208,6.0,-999.0,10,-99.99,,,-99.99,,2013-06-13 22:02:00,
2013-06-13 16:11:00,91.0,29.0,29.56,SE,140,8.0,-999.0,11,-99.99,,,-99.99,,2013-06-13 22:11:00,
2013-06-13 16:22:00,91.0,29.0,29.56,SE,140,8.0,-999.0,11,-99.99,,,-99.99,,2013-06-13 22:22:00,
2013-06-13 16:32:00,89.0,30.0,29.56,SW,227,5.0,-999.0,12,-99.99,,,-99.99,,2013-06-13 22:32:00,
2013-06-13 16:42:00,89.0,28.0,29.57,SW,234,14.0,-999.0,11,-99.99,,,-99.99,,2013-06-13 22:42:00,
2013-06-13 16:52:00,89.0,28.0,29.57,SW,234,14.0,-999.0,11,-99.99,,,-99.99,,2013-06-13 22:52:00,
2013-06-13 17:02:00,90.0,28.0,29.58,WSW,243,12.0,-999.0,11,-99.99,,,-99.99,,2013-06-13 23:02:00,
2013-06-13 17:11:00,90.0,31.0,29.58,WNW,290,6.0,-999.0,12,-99.99,,,-99.99,,2013-06-13 23:11:00,
2013-06-13 17:22:00,90.0,31.0,29.58,WNW,290,6.0,-999.0,12,-99.99,,,-99.99,,2013-06-13 23:22:00,
2013-06-13 17:32:00,91.0,29.0,29.57,NNW,335,6.0,-999.0,11,-99.99,,,-99.99,,2013-06-13 23:32:00,
2013-06-13 17:43:00,90.0,26.0,29.55,NNW,339,4.0,-999.0,10,-99.99,,,-99.99,,2013-06-13 23:43:00,
2013-06-13 17:52:00,90.0,26.0,29.55,NNW,339,4.0,-999.0,10,-99.99,,,-99.99,,2013-06-13 23:52:00,
2013-06-13 18:01:00,90.0,26.0,29.53,WNW,282,5.0,-999.0,10,-99.99,,,-99.99,,2013-06-14 00:01:00,
2013-06-13 18:11:00,90.0,26.0,29.54,West,278,3.0,-999.0,10,-99.99,,,-99.99,,2013-06-14 00:11:00,
2013-06-13 18:22:00,90.0,26.0,29.54,West,278,3.0,-999.0,10,-99.99,,,-99.99,,2013-06-14 00:22:00,
2013-06-13 18:34:00,89.0,25.0,29.53,West,281,4.0,-999.0,10,-99.99,,,-99.99,,2013-06-14 00:34:00,
2013-06-13 18:43:00,88.0,25.0,29.53,West,259,4.0,-999.0,10,-99.99,,,-99.99,,2013-06-14 00:43:00,
2013-06-13 18:53:00,88.0,25.0,29.53,West,259,4.0,-999.0,10,-99.99,,,-99.99,,2013-06-14 00:53:00,
2013-06-13 19:01:00,87.0,26.0,29.52,West,266,2.0,-999.0,11,-99.99,,,-99.99,,2013-06-14 01:01:00,
2013-06-13 19:11:00,86.0,25.0,29.52,West,264,2.0,-999.0,11,-99.99,,,-99.99,,2013-06-14 01:11:00,
2013-06-13 19:22:00,86.0,25.0,29.52,West,264,2.0,-999.0,11,-99.99,,,-99.99,,2013-06-14 01:22:00,
2013-06-13 19:32:00,85.0,27.0,29.52,West,264,0.0,-999.0,12,-99.99,,,-99.99,,2013-06-14 01:32:00,
2013-06-13 19:43:00,84.0,30.0,29.53,West,264,0.0,-999.0,14,-99.99,,,-99.99,,2013-06-14 01:43:00,
2013-06-13 19:52:00,84.0,30.0,29.53,West,264,0.0,-999.0,14,-99.99,,,-99.99,,2013-06-14 01:52:00,
2013-06-13 20:02:00,82.0,28.0,29.49,West,264,0.0,-999.0,14,-99.99,,,-99.99,,2013-06-14 02:02:00,
2013-06-13 20:11:00,81.0,27.0,29.49,West,264,0.0,-999.0,14,-99.99,,,-99.99,,2013-06-14 02:11:00,
2013-06-13 20:22:00,81.0,27.0,29.49,West,264,0.0,-999.0,14,-99.99,,,-99.99,,2013-06-14 02:22:00,
2013-06-13 20:32:00,80.0,27.0,29.50,West,264,0.0,-999.0,14,-99.99,,,-99.99,,2013-06-14 02:32:00,
2013-06-13 20:43:00,80.0,28.0,29.49,West,264,0.0,-999.0,15,-99.99,,,-99.99,,2013-06-14 02:43:00,
2013-06-13 20:52:00,80.0,28.0,29.49,West,264,0.0,-999.0,15,-99.99,,,-99.99,,2013-06-14 02:52:00,
2013-06-13 21:02:00,80.0,28.0,29.45,West,264,0.0,-999.0,15,-99.99,,,-99.99,,2013-06-14 03:02:00,
2013-06-13 21:11:00,81.0,31.0,29.45,SSE,155,4.0,-999.0,16,-99.99,,,-99.99,,2013-06-14 03:11:00,
2013-06-13 21:22:00,81.0,31.0,29.45,SSE,155,4.0,-999.0,16,-99.99,,,-99.99,,2013-06-14 03:22:00,
2013-06-13 21:34:00,80.0,31.0,29.45,SW,233,2.0,-999.0,17,-99.99,,,-99.99,,2013-06-14 03:34:00,
2013-06-13 21:43:00,81.0,32.0,29.47,ESE,120,7.0,-999.0,17,-99.99,,,-99.99,,2013-06-14 03:43:00,
2013-06-13 21:52:00,81.0,32.0,29.47,ESE,120,7.0,-999.0,17,-99.99,,,-99.99,,2013-06-14 03:52:00,
2013-06-13 22:01:00,82.0,31.0,29.44,SSE,160,2.0,-999.0,16,-99.99,,,-99.99,,2013-06-14 04:01:00,
2013-06-13 22:12:00,81.0,31.0,29.44,SE,135,3.0,-999.0,16,-99.99,,,-99.99,,2013-06-14 04:12:00,
2013-06-13 22:22:00,81.0,31.0,29.44,SE,135,3.0,-999.0,16,-99.99,,,-99.99,,2013-06-14 04:22:00,
2013-06-13 22:33:00,81.0,31.0,29.45,SE,131,2.0,-999.0,16,-99.99,,,-99.99,,2013-06-14 04:33:00,
2013-06-13 22:43:00,81.0,32.0,29.46,ESE,116,5.0,-999.0,17,-99.99,,,-99.99,,2013-06-14 04:43:00,
2013-06-13 22:53:00,81.0,32.0,29.46,ESE,116,5.0,-999.0,17,-99.99,,,-99.99,,2013-06-14 04:53:00,
2013-06-13 23:02:00,81.0,32.0,29.44,SSE,150,5.0,-999.0,17,-99.99,,,-99.99,,2013-06-14 05:02:00,
2013-06-13 23:11:00,81.0,32.0,29.45,South,181,5.0,-999.0,17,-99.99,,,-99.99,,2013-06-14 05:11:00,
2013-06-13 23:22:00,81.0,32.0,29.45,South,181,5.0,-999.0,17,-99.99,,,-99.99,,2013-06-14 05:22:00,
2013-06-13 23:34:00,81.0,32.0,29.45,SSE,148,4.0,-999.0,17,-99.99,,,-99.99,,2013-06-14 05:34:00,
2013-06-13 23:43:00,80.0,31.0,29.45,SSE,153,5.0,-999.0,17,-99.99,,,-99.99,,2013-06-14 05:43:00,
2013-06-13 23:52:00,80.0,31.0,29.45,SSE,153,5.0,-999.0,17,-99.99,,,-99.99,,2013-06-14 05:52:00,